sensor_id;sensor_type;location;lat;lon;timestamp;P1;durP1;ratioP1;P2;durP2;ratioP2
3121;SDS011;1571;52.524;14.104;2023-07-13T20:07:03;1.83;;;1.63;;
3121;SDS011;1571;52.524;14.104;2023-07-13T20:09:32;2.07;;;1.80;;
3121;SDS011;1571;52.524;14.104;2023-07-13T20:12:10;7.17;;;1.67;;
3121;SDS011;1571;52.524;14.104;2023-07-13T20:14:41;2.27;;;1.53;;
3121;SDS011;1571;52.524;14.104;2023-07-13T20:17:14;1.73;;;1.20;;
3121;SDS011;1571;52.524;14.104;2023-07-13T20:19:49;1.70;;;1.60;;
3121;SDS011;1571;52.524;14.104;2023-07-13T20:22:18;2.23;;;2.07;;
3121;SDS011;1571;52.524;14.104;2023-07-13T20:24:47;1.30;;;1.20;;
3121;SDS011;1571;52.524;14.104;2023-07-13T20:27:15;3.57;;;1.40;;
3121;SDS011;1571;52.524;14.104;2023-07-13T20:29:44;1.40;;;1.30;;
3121;SDS011;1571;52.524;14.104;2023-07-13T20:32:13;1.30;;;1.20;;
3121;SDS011;1571;52.524;14.104;2023-07-13T20:34:43;1.80;;;1.50;;
3121;SDS011;1571;52.524;14.104;2023-07-13T20:37:19;3.30;;;1.50;;
3121;SDS011;1571;52.524;14.104;2023-07-13T20:39:53;1.27;;;1.10;;
3121;SDS011;1571;52.524;14.104;2023-07-13T20:42:21;5.60;;;1.13;;
3121;SDS011;1571;52.524;14.104;2023-07-13T20:44:49;4.40;;;1.93;;
3121;SDS011;1571;52.524;14.104;2023-07-13T20:47:18;1.77;;;1.23;;
3121;SDS011;1571;52.524;14.104;2023-07-13T20:49:54;2.43;;;1.20;;
3121;SDS011;1571;52.524;14.104;2023-07-13T20:52:24;2.90;;;2.70;;
3121;SDS011;1571;52.524;14.104;2023-07-13T20:54:53;1.83;;;1.50;;
3121;SDS011;1571;52.524;14.104;2023-07-13T20:57:23;1.63;;;1.37;;
3121;SDS011;1571;52.524;14.104;2023-07-13T20:59:51;1.90;;;1.37;;
3121;SDS011;1571;52.524;14.104;2023-07-13T21:02:23;4.43;;;1.40;;
3121;SDS011;1571;52.524;14.104;2023-07-13T21:04:56;2.60;;;1.73;;
3121;SDS011;1571;52.524;14.104;2023-07-13T21:07:26;1.30;;;1.20;;
3121;SDS011;1571;52.524;14.104;2023-07-13T21:09:54;3.60;;;1.33;;
3121;SDS011;1571;52.524;14.104;2023-07-13T21:12:23;2.57;;;1.93;;
3121;SDS011;1571;52.524;14.104;2023-07-13T21:14:51;2.03;;;1.90;;
3121;SDS011;1571;52.524;14.104;2023-07-13T21:17:19;2.40;;;1.40;;
3121;SDS011;1571;52.524;14.104;2023-07-13T21:19:47;4.57;;;1.70;;
3121;SDS011;1571;52.524;14.104;2023-07-13T21:22:16;3.73;;;2.10;;
3121;SDS011;1571;52.524;14.104;2023-07-13T21:24:45;1.93;;;1.40;;
3121;SDS011;1571;52.524;14.104;2023-07-13T21:27:13;2.60;;;1.57;;
3121;SDS011;1571;52.524;14.104;2023-07-13T21:29:42;5.97;;;1.90;;
3121;SDS011;1571;52.524;14.104;2023-07-13T21:32:11;2.33;;;1.60;;
3121;SDS011;1571;52.524;14.104;2023-07-13T21:34:43;1.90;;;1.67;;
3121;SDS011;1571;52.524;14.104;2023-07-13T21:37:14;1.50;;;1.40;;
3121;SDS011;1571;52.524;14.104;2023-07-13T21:39:47;3.77;;;2.07;;
3121;SDS011;1571;52.524;14.104;2023-07-13T21:42:18;3.07;;;2.20;;
3121;SDS011;1571;52.524;14.104;2023-07-13T21:44:47;3.43;;;1.60;;
3121;SDS011;1571;52.524;14.104;2023-07-13T21:47:15;2.90;;;1.67;;
3121;SDS011;1571;52.524;14.104;2023-07-13T21:49:44;4.40;;;2.00;;
3121;SDS011;1571;52.524;14.104;2023-07-13T21:52:14;1.70;;;1.30;;
3121;SDS011;1571;52.524;14.104;2023-07-13T21:54:46;1.70;;;1.60;;
3121;SDS011;1571;52.524;14.104;2023-07-13T21:57:14;1.53;;;1.43;;
3121;SDS011;1571;52.524;14.104;2023-07-13T21:59:44;1.73;;;1.63;;
3121;SDS011;1571;52.524;14.104;2023-07-13T22:02:13;3.53;;;1.57;;
3121;SDS011;1571;52.524;14.104;2023-07-13T22:04:41;1.70;;;1.60;;
3121;SDS011;1571;52.524;14.104;2023-07-13T22:07:11;2.80;;;1.60;;
3121;SDS011;1571;52.524;14.104;2023-07-13T22:09:40;1.97;;;1.80;;
3121;SDS011;1571;52.524;14.104;2023-07-13T22:12:10;4.10;;;1.77;;
3121;SDS011;1571;52.524;14.104;2023-07-13T22:14:38;6.97;;;1.33;;
3121;SDS011;1571;52.524;14.104;2023-07-13T22:17:08;3.07;;;1.50;;
3121;SDS011;1571;52.524;14.104;2023-07-13T22:19:39;1.80;;;1.70;;
3121;SDS011;1571;52.524;14.104;2023-07-13T22:22:08;4.13;;;1.17;;
3121;SDS011;1571;52.524;14.104;2023-07-13T22:24:36;1.80;;;1.70;;
3121;SDS011;1571;52.524;14.104;2023-07-13T22:27:09;3.70;;;1.87;;
3121;SDS011;1571;52.524;14.104;2023-07-13T22:29:38;1.80;;;1.70;;
3121;SDS011;1571;52.524;14.104;2023-07-13T22:32:07;1.57;;;1.47;;
3121;SDS011;1571;52.524;14.104;2023-07-13T22:34:36;2.00;;;1.90;;
3121;SDS011;1571;52.524;14.104;2023-07-13T22:37:04;4.00;;;2.10;;
3121;SDS011;1571;52.524;14.104;2023-07-13T22:39:36;2.43;;;1.87;;
3121;SDS011;1571;52.524;14.104;2023-07-13T22:42:04;3.23;;;2.00;;
3121;SDS011;1571;52.524;14.104;2023-07-13T22:44:36;2.37;;;2.03;;
3121;SDS011;1571;52.524;14.104;2023-07-13T22:47:05;3.33;;;2.50;;
3121;SDS011;1571;52.524;14.104;2023-07-13T22:49:35;2.30;;;2.10;;
3121;SDS011;1571;52.524;14.104;2023-07-13T22:52:03;2.50;;;1.77;;
3121;SDS011;1571;52.524;14.104;2023-07-13T22:54:37;2.77;;;2.10;;
3121;SDS011;1571;52.524;14.104;2023-07-13T22:57:07;1.73;;;1.63;;
3121;SDS011;1571;52.524;14.104;2023-07-13T22:59:36;3.83;;;2.07;;
3121;SDS011;1571;52.524;14.104;2023-07-13T23:02:05;2.10;;;2.00;;
3121;SDS011;1571;52.524;14.104;2023-07-13T23:04:33;2.10;;;2.00;;
3121;SDS011;1571;52.524;14.104;2023-07-13T23:07:03;4.30;;;2.20;;
3121;SDS011;1571;52.524;14.104;2023-07-13T23:09:32;2.40;;;1.87;;
3121;SDS011;1571;52.524;14.104;2023-07-13T23:12:01;6.20;;;2.10;;
3121;SDS011;1571;52.524;14.104;2023-07-13T23:14:30;2.17;;;1.90;;
3121;SDS011;1571;52.524;14.104;2023-07-13T23:17:00;2.40;;;2.20;;
3121;SDS011;1571;52.524;14.104;2023-07-13T23:19:29;5.83;;;2.60;;
3121;SDS011;1571;52.524;14.104;2023-07-13T23:21:59;4.30;;;1.83;;
3121;SDS011;1571;52.524;14.104;2023-07-13T23:24:30;2.83;;;2.63;;
3121;SDS011;1571;52.524;14.104;2023-07-13T23:27:01;3.07;;;2.60;;
3121;SDS011;1571;52.524;14.104;2023-07-13T23:29:30;3.83;;;2.53;;
3121;SDS011;1571;52.524;14.104;2023-07-13T23:31:59;3.93;;;2.50;;
3121;SDS011;1571;52.524;14.104;2023-07-13T23:34:28;2.93;;;2.67;;
3121;SDS011;1571;52.524;14.104;2023-07-13T23:36:57;2.93;;;2.73;;
3121;SDS011;1571;52.524;14.104;2023-07-13T23:39:25;2.57;;;2.37;;
3121;SDS011;1571;52.524;14.104;2023-07-13T23:41:57;3.20;;;2.90;;
3121;SDS011;1571;52.524;14.104;2023-07-13T23:44:27;3.03;;;2.77;;
3121;SDS011;1571;52.524;14.104;2023-07-13T23:46:55;4.90;;;2.90;;
3121;SDS011;1571;52.524;14.104;2023-07-13T23:49:26;3.70;;;2.90;;
3121;SDS011;1571;52.524;14.104;2023-07-13T23:51:57;3.43;;;3.23;;
3121;SDS011;1571;52.524;14.104;2023-07-13T23:54:27;2.87;;;2.20;;
3121;SDS011;1571;52.524;14.104;2023-07-13T23:56:57;3.40;;;3.10;;
3121;SDS011;1571;52.524;14.104;2023-07-13T23:59:26;3.87;;;3.57;;
